createdAt,value
2016-05-10T00:00:10.343Z,1008.82
2016-05-10T00:01:10.564Z,1008.78
2016-05-10T00:02:10.566Z,1008.79
2016-05-10T00:03:10.554Z,1008.77
2016-05-10T00:04:10.354Z,1008.76
2016-05-10T00:05:10.560Z,1008.76
2016-05-10T00:06:10.359Z,1008.77
2016-05-10T00:07:10.362Z,1008.75
2016-05-10T00:08:10.552Z,1008.73
2016-05-10T00:09:10.554Z,1008.72
2016-05-10T00:10:10.354Z,1008.69
2016-05-10T00:11:10.560Z,1008.77
2016-05-10T00:12:10.563Z,1008.73
2016-05-10T00:13:10.592Z,1008.73
2016-05-10T00:14:10.511Z,1008.71
2016-05-10T00:15:10.680Z,1008.69
2016-05-10T00:16:10.521Z,1008.71
2016-05-10T00:17:10.752Z,1008.73
2016-05-10T00:18:10.575Z,1008.69
2016-05-10T00:19:10.795Z,1008.71
2016-05-10T00:20:10.609Z,1008.69
2016-05-10T00:21:10.627Z,1008.7
2016-05-10T00:22:10.832Z,1008.72
2016-05-10T00:23:10.843Z,1008.66
2016-05-10T00:24:10.851Z,1008.68
2016-05-10T00:25:10.860Z,1008.7
2016-05-10T00:26:10.867Z,1008.7
2016-05-10T00:27:10.875Z,1008.68
2016-05-10T00:28:10.881Z,1008.67
2016-05-10T00:29:10.886Z,1008.69
2016-05-10T00:30:10.688Z,1008.66
2016-05-10T00:31:10.895Z,1008.68
2016-05-10T00:32:10.681Z,1008.65
2016-05-10T00:33:10.887Z,1008.62
2016-05-10T00:34:10.891Z,1008.62
2016-05-10T00:35:10.675Z,1008.65
2016-05-10T00:36:10.679Z,1008.63
2016-05-10T00:37:10.682Z,1008.6
2016-05-10T00:38:10.904Z,1008.6
2016-05-10T00:39:10.893Z,1008.58
2016-05-10T00:40:10.691Z,1008.55
2016-05-10T00:41:10.882Z,1008.6
2016-05-10T00:42:10.885Z,1008.57
2016-05-10T00:43:10.888Z,1008.58
2016-05-10T00:44:12.297Z,1008.56
2016-05-10T00:45:10.690Z,1008.59
2016-05-10T00:46:10.694Z,1008.55
2016-05-10T00:47:10.899Z,1008.61
2016-05-10T00:48:10.699Z,1008.56
2016-05-10T00:49:10.905Z,1008.53
2016-05-10T00:50:10.688Z,1008.53
2016-05-10T00:51:10.894Z,1008.55
2016-05-10T00:52:10.693Z,1008.52
2016-05-10T00:53:10.681Z,1008.55
2016-05-10T00:54:10.684Z,1008.5
2016-05-10T00:55:10.890Z,1008.48
2016-05-10T00:56:10.893Z,1008.45
2016-05-10T00:57:10.895Z,1008.46
2016-05-10T00:58:10.898Z,1008.41
2016-05-10T00:59:10.931Z,1008.46
2016-05-10T01:00:10.684Z,1008.42
2016-05-10T01:01:10.687Z,1008.43
2016-05-10T01:02:10.689Z,1008.4
2016-05-10T01:03:10.692Z,1008.41
2016-05-10T01:04:10.898Z,1008.38
2016-05-10T01:05:10.901Z,1008.38
2016-05-10T01:06:10.887Z,1008.37
2016-05-10T01:07:10.687Z,1008.37
2016-05-10T01:08:10.893Z,1008.35
2016-05-10T01:09:10.692Z,1008.35
2016-05-10T01:10:10.695Z,1008.33
2016-05-10T01:11:10.901Z,1008.35
2016-05-10T01:12:10.903Z,1008.32
2016-05-10T01:13:10.688Z,1008.29
2016-05-10T01:14:10.691Z,1008.33
2016-05-10T01:15:10.694Z,1008.31
2016-05-10T01:16:10.696Z,1008.28
2016-05-10T01:17:10.917Z,1008.27
2016-05-10T01:18:10.686Z,1008.31
2016-05-10T01:19:10.907Z,1008.32
2016-05-10T01:20:10.894Z,1008.31
2016-05-10T01:21:10.897Z,1008.28
2016-05-10T01:22:10.915Z,1008.28
2016-05-10T01:23:10.902Z,1008.3
2016-05-10T01:24:10.890Z,1008.27
2016-05-10T01:25:10.705Z,1008.25
2016-05-10T01:26:10.895Z,1008.21
2016-05-10T01:27:10.694Z,1008.25
2016-05-10T01:28:10.900Z,1008.23
2016-05-10T01:29:10.684Z,1008.22
2016-05-10T01:30:10.890Z,1008.19
2016-05-10T01:31:10.704Z,1008.23
2016-05-10T01:32:10.692Z,1008.24
2016-05-10T01:33:10.898Z,1008.17
2016-05-10T01:34:10.698Z,1008.16
2016-05-10T01:35:10.903Z,1008.18
2016-05-10T01:36:10.906Z,1008.17
2016-05-10T01:37:10.893Z,1008.14
2016-05-10T01:38:10.692Z,1008.12
2016-05-10T01:39:10.695Z,1008.12
2016-05-10T01:40:10.901Z,1008.11
2016-05-10T01:41:10.686Z,1008.13
2016-05-10T01:42:10.891Z,1008.11
2016-05-10T01:43:10.894Z,1008.11
2016-05-10T01:44:10.896Z,1008.09
2016-05-10T01:45:10.899Z,1008.1
2016-05-10T01:46:10.902Z,1008.08
2016-05-10T01:47:10.702Z,1008.09
2016-05-10T01:48:10.892Z,1008.07
2016-05-10T01:49:10.691Z,1008.09
2016-05-10T01:50:10.896Z,1008.08
2016-05-10T01:51:10.899Z,1008.1
2016-05-10T01:52:10.902Z,1008.12
2016-05-10T01:53:10.686Z,1008.05
2016-05-10T01:54:10.908Z,1008.07
2016-05-10T01:55:10.691Z,1008.03
2016-05-10T01:56:10.897Z,1007.99
2016-05-10T01:57:10.696Z,1007.98
2016-05-10T01:58:10.903Z,1007.99
2016-05-10T01:59:10.702Z,1007.99
2016-05-10T02:00:10.893Z,1007.97
2016-05-10T02:01:10.895Z,1007.93
2016-05-10T02:02:10.898Z,1007.93
2016-05-10T02:03:10.884Z,1007.89
2016-05-10T02:04:10.684Z,1007.87
2016-05-10T02:05:10.687Z,1007.87
2016-05-10T02:06:10.893Z,1007.93
2016-05-10T02:07:10.693Z,1007.89
2016-05-10T02:08:10.898Z,1007.94
2016-05-10T02:09:10.885Z,1007.87
2016-05-10T02:10:10.888Z,1007.85
2016-05-10T02:11:10.891Z,1007.86
2016-05-10T02:12:10.894Z,1007.84
2016-05-10T02:13:10.693Z,1007.85
2016-05-10T02:14:10.883Z,1007.84
2016-05-10T02:15:10.886Z,1007.85
2016-05-10T02:16:10.685Z,1007.88
2016-05-10T02:17:10.688Z,1007.86
2016-05-10T02:18:10.691Z,1007.89
2016-05-10T02:19:10.881Z,1007.85
2016-05-10T02:20:10.899Z,1007.85
2016-05-10T02:21:10.683Z,1007.84
2016-05-10T02:22:10.889Z,1007.85
2016-05-10T02:23:10.891Z,1007.84
2016-05-10T02:24:10.879Z,1007.8
2016-05-10T02:25:10.882Z,1007.79
2016-05-10T02:26:10.885Z,1007.81
2016-05-10T02:27:10.887Z,1007.83
2016-05-10T02:28:10.890Z,1007.81
2016-05-10T02:29:10.893Z,1007.82
2016-05-10T02:30:10.879Z,1007.81
2016-05-10T02:31:10.695Z,1007.81
2016-05-10T02:32:10.884Z,1007.8
2016-05-10T02:33:10.684Z,1007.8
2016-05-10T02:34:10.874Z,1007.77
2016-05-10T02:35:10.909Z,1007.81
2016-05-10T02:36:10.880Z,1007.79
2016-05-10T02:37:10.679Z,1007.74
2016-05-10T02:38:10.884Z,1007.75
2016-05-10T02:39:10.872Z,1007.79
2016-05-10T02:40:10.890Z,1007.78
2016-05-10T02:41:10.878Z,1007.78
2016-05-10T02:42:10.881Z,1007.77
2016-05-10T02:43:10.883Z,1007.78
2016-05-10T02:44:10.667Z,1007.78
2016-05-10T02:45:10.669Z,1007.76
2016-05-10T02:46:10.673Z,1007.73
2016-05-10T02:47:10.675Z,1007.71
2016-05-10T02:48:10.880Z,1007.71
2016-05-10T02:49:10.869Z,1007.7
2016-05-10T02:50:10.667Z,1007.71
2016-05-10T02:51:10.669Z,1007.66
2016-05-10T02:52:10.673Z,1007.67
2016-05-10T02:53:10.879Z,1007.63
2016-05-10T02:54:10.882Z,1007.63
2016-05-10T02:55:10.869Z,1007.63
2016-05-10T02:56:10.871Z,1007.61
2016-05-10T02:57:10.874Z,1007.62
2016-05-10T02:58:10.876Z,1007.6
2016-05-10T02:59:10.676Z,1007.61
2016-05-10T03:00:10.663Z,1007.58
2016-05-10T03:01:10.868Z,1007.61
2016-05-10T03:02:10.872Z,1007.57
2016-05-10T03:03:10.671Z,1007.58
2016-05-10T03:04:10.877Z,1007.59
2016-05-10T03:05:10.879Z,1007.57
2016-05-10T03:06:10.867Z,1007.57
2016-05-10T03:07:10.870Z,1007.58
2016-05-10T03:08:10.669Z,1007.58
2016-05-10T03:09:10.875Z,1007.58
2016-05-10T03:10:10.659Z,1007.57
2016-05-10T03:11:10.661Z,1007.58
2016-05-10T03:12:10.867Z,1007.6
2016-05-10T03:13:10.870Z,1007.57
2016-05-10T03:14:10.670Z,1007.59
2016-05-10T03:15:10.859Z,1007.56
2016-05-10T03:16:10.659Z,1007.57
2016-05-10T03:17:10.661Z,1007.54
2016-05-10T03:18:10.868Z,1007.52
2016-05-10T03:19:10.855Z,1007.53
2016-05-10T03:20:10.654Z,1007.5
2016-05-10T03:21:10.861Z,1007.52
2016-05-10T03:22:10.660Z,1007.54
2016-05-10T03:23:10.865Z,1007.51
2016-05-10T03:24:10.649Z,1007.53
2016-05-10T03:25:10.668Z,1007.56
2016-05-10T03:26:10.858Z,1007.53
2016-05-10T03:27:10.642Z,1007.54
2016-05-10T03:28:10.863Z,1007.57
2016-05-10T03:29:10.851Z,1007.53
2016-05-10T03:30:10.650Z,1007.54
2016-05-10T03:31:10.652Z,1007.53
2016-05-10T03:32:10.859Z,1007.54
2016-05-10T03:33:10.877Z,1007.52
2016-05-10T03:34:10.848Z,1007.51
2016-05-10T03:35:10.851Z,1007.49
2016-05-10T03:36:10.854Z,1007.48
2016-05-10T03:37:10.856Z,1007.47
2016-05-10T03:38:10.844Z,1007.48
2016-05-10T03:39:10.845Z,1007.42
2016-05-10T03:40:10.848Z,1007.45
2016-05-10T03:41:10.851Z,1007.43
2016-05-10T03:42:10.854Z,1007.46
2016-05-10T03:43:10.654Z,1007.49
2016-05-10T03:44:11.078Z,1007.45
2016-05-10T03:45:10.644Z,1007.42
2016-05-10T03:46:10.647Z,1007.41
2016-05-10T03:47:10.633Z,1007.43
2016-05-10T03:48:10.636Z,1007.43
2016-05-10T03:49:10.842Z,1007.45
2016-05-10T03:50:10.845Z,1007.41
2016-05-10T03:51:10.847Z,1007.42
2016-05-10T03:52:10.630Z,1007.42
2016-05-10T03:53:10.836Z,1007.39
2016-05-10T03:54:10.839Z,1007.41
2016-05-10T03:55:10.842Z,1007.42
2016-05-10T03:56:10.627Z,1007.43
2016-05-10T03:57:10.833Z,1007.39
2016-05-10T03:58:10.632Z,1007.37
2016-05-10T03:59:10.837Z,1007.4
2016-05-10T04:00:10.621Z,1007.37
2016-05-10T04:01:10.640Z,1007.36
2016-05-10T04:02:10.830Z,1007.35
2016-05-10T04:03:10.832Z,1007.33
2016-05-10T04:04:10.820Z,1007.31
2016-05-10T04:05:10.822Z,1007.32
2016-05-10T04:06:10.825Z,1007.28
2016-05-10T04:07:10.828Z,1007.31
2016-05-10T04:08:10.627Z,1007.3
2016-05-10T04:09:10.615Z,1007.26
2016-05-10T04:10:10.820Z,1007.28
2016-05-10T04:11:10.823Z,1007.28
2016-05-10T04:12:10.826Z,1007.28
2016-05-10T04:13:10.609Z,1007.26
2016-05-10T04:14:10.612Z,1007.28
2016-05-10T04:15:10.615Z,1007.2
2016-05-10T04:16:10.617Z,1007.22
2016-05-10T04:17:10.823Z,1007.22
2016-05-10T04:18:10.842Z,1007.23
2016-05-10T04:19:10.813Z,1007.21
2016-05-10T04:20:10.816Z,1007.21
2016-05-10T04:21:10.818Z,1007.24
2016-05-10T04:22:10.618Z,1007.21
2016-05-10T04:23:10.605Z,1007.18
2016-05-10T04:24:10.811Z,1007.2
2016-05-10T04:25:10.611Z,1007.16
2016-05-10T04:26:10.614Z,1007.19
2016-05-10T04:27:10.803Z,1007.19
2016-05-10T04:28:10.602Z,1007.18
2016-05-10T04:29:10.808Z,1007.22
2016-05-10T04:30:10.811Z,1007.21
2016-05-10T04:31:10.799Z,1007.21
2016-05-10T04:32:10.599Z,1007.17
2016-05-10T04:33:10.804Z,1007.21
2016-05-10T04:34:10.806Z,1007.18
2016-05-10T04:35:10.810Z,1007.17
2016-05-10T04:36:10.796Z,1007.2
2016-05-10T04:37:10.799Z,1007.2
2016-05-10T04:38:10.599Z,1007.22
2016-05-10T04:39:10.585Z,1007.16
2016-05-10T04:40:10.823Z,1007.18
2016-05-10T04:41:10.794Z,1007.2
2016-05-10T04:42:10.797Z,1007.16
2016-05-10T04:43:10.800Z,1007.16
2016-05-10T04:44:10.584Z,1007.18
2016-05-10T04:45:10.806Z,1007.18
2016-05-10T04:46:10.589Z,1007.18
2016-05-10T04:47:10.794Z,1007.18
2016-05-10T04:48:10.594Z,1007.17
2016-05-10T04:49:10.784Z,1007.18
2016-05-10T04:50:10.787Z,1007.16
2016-05-10T04:51:10.790Z,1007.22
2016-05-10T04:52:10.574Z,1007.2
2016-05-10T04:53:10.576Z,1007.23
2016-05-10T04:54:10.579Z,1007.17
2016-05-10T04:55:10.785Z,1007.17
2016-05-10T04:56:10.569Z,1007.14
2016-05-10T04:57:10.774Z,1007.14
2016-05-10T04:58:10.778Z,1007.16
2016-05-10T04:59:10.577Z,1007.18
2016-05-10T05:00:10.580Z,1007.18
2016-05-10T05:01:10.583Z,1007.2
2016-05-10T05:02:10.585Z,1007.25
2016-05-10T05:03:10.775Z,1007.2
2016-05-10T05:04:10.777Z,1007.18
2016-05-10T05:05:10.780Z,1007.19
2016-05-10T05:06:10.768Z,1007.16
2016-05-10T05:07:10.770Z,1007.19
2016-05-10T05:08:10.773Z,1007.16
2016-05-10T05:09:10.776Z,1007.15
2016-05-10T05:10:10.559Z,1007.12
2016-05-10T05:11:10.766Z,1007.12
2016-05-10T05:12:10.565Z,1007.08
2016-05-10T05:13:10.770Z,1007.12
2016-05-10T05:14:10.993Z,1007.13
2016-05-10T05:15:10.573Z,1007.1
2016-05-10T05:16:10.763Z,1007.12
2016-05-10T05:17:10.563Z,1007.11
2016-05-10T05:18:10.784Z,1007.1
2016-05-10T05:19:10.553Z,1007.09
2016-05-10T05:20:10.758Z,1007.06
2016-05-10T05:21:10.558Z,1007.03
2016-05-10T05:22:10.748Z,1007.04
2016-05-10T05:23:10.750Z,1007.05
2016-05-10T05:24:10.753Z,1007.01
2016-05-10T05:25:10.756Z,1007.01
2016-05-10T05:26:10.759Z,1007.01
2016-05-10T05:27:10.543Z,1007.01
2016-05-10T05:28:10.749Z,1006.98
2016-05-10T05:29:10.751Z,1006.98
2016-05-10T05:30:10.754Z,1007.02
2016-05-10T05:31:10.741Z,1007.04
2016-05-10T05:32:10.540Z,1006.99
2016-05-10T05:33:10.747Z,1007.02
2016-05-10T05:34:10.750Z,1006.95
2016-05-10T05:35:10.736Z,1006.96
2016-05-10T05:36:10.738Z,1006.96
2016-05-10T05:37:10.538Z,1006.96
2016-05-10T05:38:10.541Z,1006.91
2016-05-10T05:39:10.731Z,1006.98
2016-05-10T05:40:10.734Z,1006.95
2016-05-10T05:41:10.534Z,1006.97
2016-05-10T05:42:10.740Z,1006.97
2016-05-10T05:43:10.726Z,1006.95
2016-05-10T05:44:10.729Z,1006.93
2016-05-10T05:45:10.529Z,1006.95
2016-05-10T05:46:10.734Z,1006.9
2016-05-10T05:47:10.534Z,1006.94
2016-05-10T05:48:10.725Z,1006.94
2016-05-10T05:49:10.523Z,1006.91
2016-05-10T05:50:10.512Z,1006.94
2016-05-10T05:51:10.717Z,1006.9
2016-05-10T05:52:10.516Z,1006.89
2016-05-10T05:53:10.722Z,1006.83
2016-05-10T05:54:10.709Z,1006.84
2016-05-10T05:55:10.711Z,1006.86
2016-05-10T05:56:10.714Z,1006.83
2016-05-10T05:57:10.514Z,1006.78
2016-05-10T05:58:10.719Z,1006.79
2016-05-10T05:59:10.863Z,1006.81
2016-05-10T06:00:10.507Z,1006.84
2016-05-10T06:01:10.510Z,1006.85
2016-05-10T06:02:10.699Z,1006.81
2016-05-10T06:03:10.702Z,1006.82
2016-05-10T06:04:10.502Z,1006.82
2016-05-10T06:05:10.708Z,1006.82
2016-05-10T06:06:10.491Z,1006.84
2016-05-10T06:07:10.697Z,1006.83
2016-05-10T06:08:10.700Z,1006.88
2016-05-10T06:09:10.703Z,1006.83
2016-05-10T06:10:10.689Z,1006.88
2016-05-10T06:11:10.489Z,1006.83
2016-05-10T06:12:10.695Z,1006.88
2016-05-10T06:13:10.698Z,1006.83
2016-05-10T06:14:10.748Z,1006.81
2016-05-10T06:15:10.485Z,1006.8
2016-05-10T06:16:10.487Z,1006.8
2016-05-10T06:17:10.489Z,1006.82
2016-05-10T06:18:10.695Z,1006.8
2016-05-10T06:19:10.683Z,1006.8
2016-05-10T06:20:10.686Z,1006.78
2016-05-10T06:21:10.689Z,1006.82
2016-05-10T06:22:10.473Z,1006.83
2016-05-10T06:23:10.678Z,1006.8
2016-05-10T06:24:10.681Z,1006.83
2016-05-10T06:25:10.683Z,1006.79
2016-05-10T06:26:10.686Z,1006.81
2016-05-10T06:27:10.672Z,1006.82
2016-05-10T06:28:10.676Z,1006.81
2016-05-10T06:29:10.475Z,1006.8
2016-05-10T06:30:10.478Z,1006.77
2016-05-10T06:31:10.668Z,1006.8
2016-05-10T06:32:10.672Z,1006.76
2016-05-10T06:33:10.673Z,1006.75
2016-05-10T06:34:10.457Z,1006.78
2016-05-10T06:35:10.460Z,1006.81
2016-05-10T06:36:10.666Z,1006.79
2016-05-10T06:37:10.465Z,1006.77
2016-05-10T06:38:10.469Z,1006.79
2016-05-10T06:39:10.674Z,1006.78
2016-05-10T06:40:10.457Z,1006.82
2016-05-10T06:41:10.663Z,1006.78
2016-05-10T06:42:10.448Z,1006.78
2016-05-10T06:43:10.654Z,1006.79
2016-05-10T06:44:10.657Z,1006.75
2016-05-10T06:45:10.659Z,1006.75
2016-05-10T06:46:10.459Z,1006.71
2016-05-10T06:47:10.649Z,1006.73
2016-05-10T06:48:10.651Z,1006.73
2016-05-10T06:49:10.451Z,1006.69
2016-05-10T06:50:10.657Z,1006.71
2016-05-10T06:51:10.644Z,1006.67
2016-05-10T06:52:10.647Z,1006.67
2016-05-10T06:53:10.634Z,1006.7
2016-05-10T06:54:10.637Z,1006.71
2016-05-10T06:55:10.436Z,1006.7
2016-05-10T06:56:10.438Z,1006.69
2016-05-10T06:57:10.644Z,1006.67
2016-05-10T06:58:10.428Z,1006.67
2016-05-10T06:59:10.634Z,1006.65
2016-05-10T07:00:10.636Z,1006.66
2016-05-10T07:01:10.624Z,1006.65
2016-05-10T07:02:10.626Z,1006.63
2016-05-10T07:03:10.630Z,1006.62
2016-05-10T07:04:10.632Z,1006.66
2016-05-10T07:05:10.619Z,1006.63
2016-05-10T07:06:10.621Z,1006.65
2016-05-10T07:07:10.624Z,1006.65
2016-05-10T07:08:10.627Z,1006.62
2016-05-10T07:09:10.613Z,1006.61
2016-05-10T07:10:10.617Z,1006.65
2016-05-10T07:11:10.619Z,1006.65
2016-05-10T07:12:10.621Z,1006.66
2016-05-10T07:13:10.406Z,1006.68
2016-05-10T07:14:10.409Z,1006.65
2016-05-10T07:15:10.412Z,1006.66
2016-05-10T07:16:10.618Z,1006.65
2016-05-10T07:17:10.401Z,1006.64
2016-05-10T07:18:10.607Z,1006.69
2016-05-10T07:19:10.406Z,1006.67
2016-05-10T07:20:10.410Z,1006.65
2016-05-10T07:21:10.600Z,1006.62
2016-05-10T07:22:10.398Z,1006.64
2016-05-10T07:23:10.401Z,1006.63
2016-05-10T07:24:10.608Z,1006.63
2016-05-10T07:25:10.611Z,1006.62
2016-05-10T07:26:10.598Z,1006.62
2016-05-10T07:27:10.600Z,1006.6
2016-05-10T07:28:10.603Z,1006.61
2016-05-10T07:29:10.417Z,1006.63
2016-05-10T07:30:10.608Z,1006.57
2016-05-10T07:31:10.391Z,1006.59
2016-05-10T07:32:10.394Z,1006.58
2016-05-10T07:33:10.585Z,1006.58
2016-05-10T07:34:10.385Z,1006.58
2016-05-10T07:35:10.388Z,1006.6
2016-05-10T07:36:10.593Z,1006.59
2016-05-10T07:37:10.596Z,1006.6
2016-05-10T07:38:10.379Z,1006.59
2016-05-10T07:39:10.382Z,1006.58
2016-05-10T07:40:10.385Z,1006.55
2016-05-10T07:41:10.574Z,1006.54
2016-05-10T07:42:10.374Z,1006.52
2016-05-10T07:43:10.377Z,1006.54
2016-05-10T07:44:10.583Z,1006.57
2016-05-10T07:45:10.586Z,1006.55
2016-05-10T07:46:10.573Z,1006.49
2016-05-10T07:47:10.373Z,1006.52
2016-05-10T07:48:10.578Z,1006.53
2016-05-10T07:49:10.581Z,1006.53
2016-05-10T07:50:10.365Z,1006.54
2016-05-10T07:51:10.571Z,1006.52
2016-05-10T07:52:10.573Z,1006.56
2016-05-10T07:53:10.576Z,1006.48
2016-05-10T07:54:10.360Z,1006.54
2016-05-10T07:55:10.379Z,1006.49
2016-05-10T07:56:10.365Z,1006.57
2016-05-10T07:57:10.368Z,1006.54
2016-05-10T07:58:10.574Z,1006.54
2016-05-10T07:59:10.530Z,1006.51
2016-05-10T08:00:10.361Z,1006.52
2016-05-10T08:01:10.363Z,1006.51
2016-05-10T08:02:10.569Z,1006.53
2016-05-10T08:03:10.556Z,1006.5
2016-05-10T08:04:10.558Z,1006.55
2016-05-10T08:05:10.561Z,1006.55
2016-05-10T08:06:10.361Z,1006.53
2016-05-10T08:07:10.349Z,1006.49
2016-05-10T08:08:10.554Z,1006.56
2016-05-10T08:09:10.354Z,1006.51
2016-05-10T08:10:10.575Z,1006.49
2016-05-10T08:11:10.343Z,1006.52
2016-05-10T08:12:10.549Z,1006.5
2016-05-10T08:13:10.552Z,1006.51
2016-05-10T08:14:10.773Z,1006.56
2016-05-10T08:15:10.541Z,1006.46
2016-05-10T08:16:10.560Z,1006.5
2016-05-10T08:17:10.343Z,1006.54
2016-05-10T08:18:10.549Z,1006.5
2016-05-10T08:19:10.552Z,1006.44
2016-05-10T08:20:10.540Z,1006.47
2016-05-10T08:21:10.339Z,1006.48
2016-05-10T08:22:10.342Z,1006.46
2016-05-10T08:23:10.548Z,1006.47
2016-05-10T08:24:10.332Z,1006.49
2016-05-10T08:25:10.537Z,1006.48
2016-05-10T08:26:10.336Z,1006.51
2016-05-10T08:27:10.417Z,1006.53
2016-05-10T08:28:10.545Z,1006.54
2016-05-10T08:29:10.345Z,1006.46
2016-05-10T08:30:10.910Z,1006.51
2016-05-10T08:31:10.616Z,1006.48
2016-05-10T08:32:10.337Z,1006.49
2016-05-10T08:33:10.527Z,1006.54
2016-05-10T08:34:10.328Z,1006.49
2016-05-10T08:35:10.533Z,1006.48
2016-05-10T08:36:10.332Z,1006.45
2016-05-10T08:37:10.538Z,1006.49
2016-05-10T08:38:10.338Z,1006.46
2016-05-10T08:39:10.527Z,1006.47
2016-05-10T08:40:10.530Z,1006.48
2016-05-10T08:41:10.315Z,1006.45
2016-05-10T08:42:10.520Z,1006.45
2016-05-10T08:43:10.523Z,1006.48
2016-05-10T08:44:10.776Z,1006.42
2016-05-10T08:45:10.326Z,1006.45
2016-05-10T08:46:10.531Z,1006.44
2016-05-10T08:47:10.518Z,1006.43
2016-05-10T08:48:10.318Z,1006.45
2016-05-10T08:49:10.321Z,1006.41
2016-05-10T08:50:10.323Z,1006.45
2016-05-10T08:51:10.310Z,1006.45
2016-05-10T08:52:10.313Z,1006.42
2016-05-10T08:53:10.519Z,1006.4
2016-05-10T08:54:10.521Z,1006.41
2016-05-10T08:55:10.524Z,1006.41
2016-05-10T08:56:10.512Z,1006.36
2016-05-10T08:57:10.514Z,1006.38
2016-05-10T08:58:10.517Z,1006.37
2016-05-10T08:59:10.316Z,1006.37
2016-05-10T09:00:10.522Z,1006.38
2016-05-10T09:01:10.509Z,1006.41
2016-05-10T09:02:10.511Z,1006.37
2016-05-10T09:03:10.311Z,1006.37
2016-05-10T09:04:10.313Z,1006.38
2016-05-10T09:05:10.300Z,1006.34
2016-05-10T09:06:10.304Z,1006.37
2016-05-10T09:07:10.510Z,1006.36
2016-05-10T09:08:10.513Z,1006.39
2016-05-10T09:09:10.516Z,1006.28
2016-05-10T09:10:10.502Z,1006.39
2016-05-10T09:11:19.911Z,1006.38
2016-05-10T09:12:10.508Z,1006.28
2016-05-10T09:13:10.510Z,1006.28
2016-05-10T09:14:10.513Z,1006.26
2016-05-10T09:15:10.297Z,1006.26
2016-05-10T09:16:10.502Z,1006.24
2016-05-10T09:17:10.505Z,1006.19
2016-05-10T09:18:10.508Z,1006.27
2016-05-10T09:19:10.344Z,1006.24
2016-05-10T09:20:10.577Z,1006.23
2016-05-10T09:21:10.418Z,1006.24
2016-05-10T09:22:10.462Z,1006.27
2016-05-10T09:23:10.506Z,1006.26
2016-05-10T09:24:10.932Z,1006.17
2016-05-10T09:25:10.528Z,1006.21
2016-05-10T09:26:10.749Z,1006.19
2016-05-10T09:27:10.767Z,1006.24
2016-05-10T09:28:10.581Z,1006.2
2016-05-10T09:29:10.793Z,1006.14
2016-05-10T09:30:11.240Z,1006.2
2016-05-10T09:31:10.590Z,1006.16
2016-05-10T09:32:10.802Z,1006.17
2016-05-10T09:33:10.591Z,1006.17
2016-05-10T09:34:10.800Z,1006.2
2016-05-10T09:35:10.804Z,1006.15
2016-05-10T09:36:10.808Z,1006.15
2016-05-10T09:37:10.813Z,1006.19
2016-05-10T09:38:10.615Z,1006.16
2016-05-10T09:39:10.821Z,1006.17
2016-05-10T09:40:10.809Z,1006.22
2016-05-10T09:41:10.812Z,1006.16
2016-05-10T09:42:10.816Z,1006.18
2016-05-10T09:43:10.820Z,1006.16
2016-05-10T09:44:10.822Z,1006.14
2016-05-10T09:45:10.826Z,1006.12
2016-05-10T09:46:10.813Z,1006.17
2016-05-10T09:47:10.613Z,1006.16
2016-05-10T09:48:10.820Z,1006.2
2016-05-10T09:49:10.822Z,1006.15
2016-05-10T09:50:10.825Z,1006.09
2016-05-10T09:51:10.811Z,1006.05
2016-05-10T09:52:10.611Z,1006.15
2016-05-10T09:53:10.817Z,1006.08
2016-05-10T09:54:10.820Z,1006.1
2016-05-10T09:55:10.634Z,1006.06
2016-05-10T09:56:10.606Z,1006.06
2016-05-10T09:57:10.812Z,1006.08
2016-05-10T09:58:10.814Z,1006.03
2016-05-10T09:59:10.631Z,1006.01
2016-05-10T10:00:10.820Z,1006
2016-05-10T10:01:10.823Z,1006.03
2016-05-10T10:02:10.825Z,1006.01
2016-05-10T10:03:10.828Z,1006.02
2016-05-10T10:04:10.816Z,1006.07
2016-05-10T10:05:10.818Z,1005.99
2016-05-10T10:06:10.821Z,1005.99
2016-05-10T10:07:10.808Z,1006.06
2016-05-10T10:08:10.810Z,1006.06
2016-05-10T10:09:10.814Z,1006.04
2016-05-10T10:10:10.816Z,1006.06
2016-05-10T10:11:10.819Z,1006.05
2016-05-10T10:12:10.603Z,1006.03
2016-05-10T10:13:10.605Z,1006.01
2016-05-10T10:14:10.608Z,1006.06
2016-05-10T10:15:10.813Z,1006.02
2016-05-10T10:16:10.816Z,1006.03
2016-05-10T10:17:10.601Z,1005.99
2016-05-10T10:18:10.603Z,1006.02
2016-05-10T10:19:10.809Z,1005.96
2016-05-10T10:20:10.826Z,1006.01
2016-05-10T10:21:10.612Z,1005.93
2016-05-10T10:22:10.614Z,1005.99
2016-05-10T10:23:10.820Z,1006
2016-05-10T10:24:10.619Z,1006.03
2016-05-10T10:25:10.810Z,1006
2016-05-10T10:26:10.609Z,1006
2016-05-10T10:27:10.815Z,1006
2016-05-10T10:28:10.631Z,1005.96
2016-05-10T10:29:10.820Z,1005.97
2016-05-10T10:30:10.808Z,1005.98
2016-05-10T10:31:10.810Z,1005.92
2016-05-10T10:32:10.813Z,1005.98
2016-05-10T10:33:10.816Z,1005.89
2016-05-10T10:34:10.614Z,1005.96
2016-05-10T10:35:10.602Z,1005.98
2016-05-10T10:36:10.605Z,1005.93
2016-05-10T10:37:10.810Z,1005.92
2016-05-10T10:38:10.813Z,1005.89
2016-05-10T10:39:10.816Z,1005.9
2016-05-10T10:40:10.818Z,1005.89
2016-05-10T10:41:10.619Z,1005.87
2016-05-10T10:42:10.808Z,1005.87
2016-05-10T10:43:10.811Z,1005.92
2016-05-10T10:44:10.955Z,1005.85
2016-05-10T10:45:10.613Z,1005.86
2016-05-10T10:46:10.616Z,1005.83
2016-05-10T10:47:10.807Z,1005.84
2016-05-10T10:48:10.809Z,1005.9
2016-05-10T10:49:10.811Z,1005.9
2016-05-10T10:50:10.815Z,1005.86
2016-05-10T10:51:10.833Z,1005.87
2016-05-10T10:52:10.601Z,1005.87
2016-05-10T10:53:10.807Z,1005.82
2016-05-10T10:54:10.622Z,1005.84
2016-05-10T10:55:10.812Z,1005.87
2016-05-10T10:56:10.814Z,1005.88
2016-05-10T10:57:10.614Z,1005.82
2016-05-10T10:58:10.820Z,1005.86
2016-05-10T10:59:10.823Z,1005.85
2016-05-10T11:00:10.826Z,1005.84
2016-05-10T11:01:10.812Z,1005.87
2016-05-10T11:02:10.612Z,1005.88
2016-05-10T11:03:10.615Z,1005.84
2016-05-10T11:04:10.821Z,1005.82
2016-05-10T11:05:10.823Z,1005.83
2016-05-10T11:06:10.811Z,1005.8
2016-05-10T11:07:10.813Z,1005.81
2016-05-10T11:08:10.816Z,1005.77
2016-05-10T11:09:10.818Z,1005.78
2016-05-10T11:10:10.821Z,1005.77
2016-05-10T11:11:10.621Z,1005.8
2016-05-10T11:12:10.827Z,1005.75
2016-05-10T11:13:10.813Z,1005.78
2016-05-10T11:14:11.426Z,1005.75
2016-05-10T11:15:10.616Z,1005.76
2016-05-10T11:16:10.618Z,1005.81
2016-05-10T11:17:10.621Z,1005.75
2016-05-10T11:18:10.827Z,1005.75
2016-05-10T11:19:10.830Z,1005.72
2016-05-10T11:20:10.817Z,1005.72
2016-05-10T11:21:10.820Z,1005.67
2016-05-10T11:22:10.619Z,1005.75
2016-05-10T11:23:10.826Z,1005.72
2016-05-10T11:24:10.828Z,1005.72
2016-05-10T11:25:10.627Z,1005.72
2016-05-10T11:26:10.834Z,1005.72
2016-05-10T11:27:10.617Z,1005.68
2016-05-10T11:28:10.651Z,1005.69
2016-05-10T11:29:10.623Z,1005.65
2016-05-10T11:30:10.828Z,1005.67
2016-05-10T11:31:10.831Z,1005.65
2016-05-10T11:32:10.833Z,1005.64
2016-05-10T11:33:10.836Z,1005.68
2016-05-10T11:34:10.838Z,1005.66
2016-05-10T11:35:10.825Z,1005.61
2016-05-10T11:36:10.828Z,1005.61
2016-05-10T11:37:10.831Z,1005.63
2016-05-10T11:38:10.833Z,1005.57
2016-05-10T11:39:10.836Z,1005.59
2016-05-10T11:40:10.636Z,1005.59
2016-05-10T11:41:10.842Z,1005.57
2016-05-10T11:42:10.830Z,1005.56
2016-05-10T11:43:10.832Z,1005.53
2016-05-10T11:44:10.834Z,1005.57
2016-05-10T11:45:10.838Z,1005.56
2016-05-10T11:46:10.841Z,1005.56
2016-05-10T11:47:10.640Z,1005.53
2016-05-10T11:48:10.643Z,1005.54
2016-05-10T11:49:10.848Z,1005.6
2016-05-10T11:50:10.835Z,1005.57
2016-05-10T11:51:10.635Z,1005.54
2016-05-10T11:52:10.840Z,1005.52
2016-05-10T11:53:10.640Z,1005.48
2016-05-10T11:54:10.846Z,1005.49
2016-05-10T11:55:10.848Z,1005.5
2016-05-10T11:56:10.851Z,1005.48
2016-05-10T11:57:10.838Z,1005.47
2016-05-10T11:58:10.637Z,1005.47
2016-05-10T11:59:10.843Z,1005.51
2016-05-10T12:00:10.659Z,1005.47
2016-05-10T12:01:10.848Z,1005.42
2016-05-10T12:02:10.851Z,1005.42
2016-05-10T12:03:10.635Z,1005.4
2016-05-10T12:04:10.841Z,1005.43
2016-05-10T12:05:10.844Z,1005.36
2016-05-10T12:06:10.847Z,1005.4
2016-05-10T12:07:10.647Z,1005.35
2016-05-10T12:08:10.633Z,1005.32